createdAt,value
2018-03-24T00:02:04.428Z,98.60
2018-03-24T00:04:31.852Z,98.60
2018-03-24T00:06:59.293Z,98.60
2018-03-24T00:09:26.759Z,98.60
2018-03-24T00:11:54.196Z,98.50
2018-03-24T00:14:22.160Z,98.60
2018-03-24T00:16:49.595Z,98.60
2018-03-24T00:19:17.058Z,98.60
2018-03-24T00:21:44.520Z,98.60
2018-03-24T00:24:11.961Z,98.60
2018-03-24T00:26:39.673Z,98.70
2018-03-24T00:29:07.130Z,98.70
2018-03-24T00:31:34.590Z,98.70
2018-03-24T00:34:02.068Z,99.00
2018-03-24T00:36:29.523Z,99.20
2018-03-24T00:38:57.036Z,99.30
2018-03-24T00:41:24.587Z,99.20
2018-03-24T00:43:52.041Z,99.10
2018-03-24T00:46:19.493Z,99.20
2018-03-24T00:48:47.029Z,99.40
2018-03-24T00:51:14.920Z,99.40
2018-03-24T00:53:42.568Z,99.50
2018-03-24T00:56:10.013Z,99.50
2018-03-24T00:58:37.470Z,99.40
2018-03-24T01:01:04.902Z,99.40
2018-03-24T01:03:32.914Z,99.30
2018-03-24T01:06:00.791Z,99.30
2018-03-24T01:08:28.233Z,99.40
2018-03-24T01:10:55.700Z,99.60
2018-03-24T01:13:23.146Z,99.90
2018-03-24T01:15:50.607Z,99.90
2018-03-24T01:18:18.049Z,99.90
2018-03-24T01:20:45.491Z,99.90
2018-03-24T01:23:12.953Z,99.90
2018-03-24T01:25:40.398Z,99.90
2018-03-24T01:28:08.616Z,99.90
2018-03-24T01:30:36.344Z,99.90
2018-03-24T01:33:03.772Z,99.90
2018-03-24T01:35:31.445Z,99.90
2018-03-24T01:37:58.889Z,99.90
2018-03-24T01:40:26.346Z,99.90
2018-03-24T01:42:53.817Z,99.90
2018-03-24T01:45:21.281Z,99.90
2018-03-24T01:47:48.747Z,99.90
2018-03-24T01:50:16.202Z,99.90
2018-03-24T01:52:43.907Z,99.90
2018-03-24T01:55:11.352Z,99.90
2018-03-24T01:57:38.794Z,99.90
2018-03-24T02:00:06.268Z,99.90
2018-03-24T02:02:33.717Z,99.90
2018-03-24T02:05:01.618Z,99.90
2018-03-24T02:07:29.052Z,99.90
2018-03-24T02:09:56.514Z,99.90
2018-03-24T02:12:23.978Z,99.90
2018-03-24T02:14:51.421Z,99.90
2018-03-24T02:17:18.882Z,99.90
2018-03-24T02:19:46.321Z,99.90
2018-03-24T02:22:13.789Z,99.90
2018-03-24T02:24:47.698Z,99.90
2018-03-24T02:27:15.144Z,99.90
2018-03-24T02:29:42.710Z,99.90
2018-03-24T02:32:10.166Z,99.90
2018-03-24T02:34:37.607Z,99.90
2018-03-24T02:37:05.063Z,99.90
2018-03-24T02:39:32.509Z,99.90
2018-03-24T02:42:00.261Z,99.90
2018-03-24T02:44:27.714Z,99.90
2018-03-24T02:46:55.145Z,99.90
2018-03-24T02:49:22.608Z,99.90
2018-03-24T02:51:50.057Z,99.90
2018-03-24T02:54:17.507Z,99.90
2018-03-24T02:56:44.965Z,99.90
2018-03-24T02:59:12.408Z,99.90
2018-03-24T03:01:39.871Z,99.90
2018-03-24T03:04:07.313Z,99.90
2018-03-24T03:06:34.787Z,99.90
2018-03-24T03:09:02.214Z,99.90
2018-03-24T03:11:29.753Z,99.90
2018-03-24T03:13:57.208Z,99.90
2018-03-24T03:16:24.662Z,99.90
2018-03-24T03:18:52.129Z,99.90
2018-03-24T03:21:19.595Z,99.90
2018-03-24T03:23:47.045Z,99.90
2018-03-24T03:26:14.510Z,99.90
2018-03-24T03:28:41.951Z,99.90
2018-03-24T03:31:09.427Z,99.90
2018-03-24T03:33:36.868Z,99.90
2018-03-24T03:36:04.301Z,99.90
2018-03-24T03:38:31.769Z,99.90
2018-03-24T03:40:59.213Z,99.90
2018-03-24T03:43:26.665Z,99.90
2018-03-24T03:45:54.103Z,99.90
2018-03-24T03:48:21.549Z,99.90
2018-03-24T03:50:49.006Z,99.90
2018-03-24T03:53:16.464Z,99.90
2018-03-24T03:55:43.925Z,99.90
2018-03-24T03:58:11.371Z,99.90
2018-03-24T04:00:38.820Z,99.90
2018-03-24T04:03:06.269Z,99.90
2018-03-24T04:05:33.705Z,99.90
2018-03-24T04:08:01.174Z,99.90
2018-03-24T04:10:28.609Z,99.90
2018-03-24T04:12:56.072Z,99.90
2018-03-24T04:15:23.535Z,99.90
2018-03-24T04:17:50.980Z,99.90
2018-03-24T04:20:22.010Z,99.90
2018-03-24T04:22:50.229Z,99.90
2018-03-24T04:25:18.211Z,99.90
2018-03-24T04:27:46.527Z,99.90
2018-03-24T04:30:14.741Z,99.90
2018-03-24T04:32:44.016Z,99.90
2018-03-24T04:35:11.474Z,99.90
2018-03-24T04:37:38.937Z,99.90
2018-03-24T04:40:06.385Z,99.90
2018-03-24T04:42:33.828Z,99.90
2018-03-24T04:45:01.286Z,99.90
2018-03-24T04:47:28.726Z,99.90
2018-03-24T04:49:56.184Z,99.90
2018-03-24T04:52:23.640Z,99.90
2018-03-24T04:54:51.106Z,99.90
2018-03-24T04:57:18.563Z,99.90
2018-03-24T04:59:45.991Z,99.90
2018-03-24T05:02:13.451Z,99.90
2018-03-24T05:04:40.918Z,99.90
2018-03-24T05:07:09.131Z,99.90
2018-03-24T05:09:36.616Z,99.90
2018-03-24T05:12:04.025Z,99.90
2018-03-24T05:14:31.483Z,99.90
2018-03-24T05:16:58.949Z,99.90
2018-03-24T05:19:27.163Z,99.90
2018-03-24T05:21:54.636Z,99.90
2018-03-24T05:24:22.074Z,99.90
2018-03-24T05:26:49.523Z,99.90
2018-03-24T05:29:16.985Z,99.90
2018-03-24T05:31:44.457Z,99.90
2018-03-24T05:34:11.912Z,99.90
2018-03-24T05:36:39.608Z,99.90
2018-03-24T05:39:07.056Z,99.90
2018-03-24T05:41:34.518Z,99.90
2018-03-24T05:44:01.953Z,99.90
2018-03-24T05:46:29.402Z,99.90
2018-03-24T05:48:56.871Z,99.90
2018-03-24T05:51:24.343Z,99.90
2018-03-24T05:53:51.807Z,99.90
2018-03-24T05:56:19.246Z,99.90
2018-03-24T05:58:46.692Z,99.90
2018-03-24T06:01:14.166Z,99.90
2018-03-24T06:03:41.610Z,99.90
2018-03-24T06:06:09.063Z,99.90
2018-03-24T06:08:36.509Z,99.90
2018-03-24T06:11:03.958Z,99.90
2018-03-24T06:13:31.404Z,99.90
2018-03-24T06:15:58.854Z,99.90
2018-03-24T06:18:26.323Z,99.90
2018-03-24T06:20:53.764Z,99.90
2018-03-24T06:23:21.209Z,99.90
2018-03-24T06:25:48.662Z,99.90
2018-03-24T06:28:16.109Z,99.90
2018-03-24T06:30:45.459Z,99.90
2018-03-24T06:33:12.924Z,99.90
2018-03-24T06:35:40.378Z,99.90
2018-03-24T06:38:07.872Z,99.90
2018-03-24T06:40:35.277Z,99.90
2018-03-24T06:43:02.729Z,99.90
2018-03-24T06:45:30.201Z,99.90
2018-03-24T06:47:57.660Z,99.90
2018-03-24T06:50:25.098Z,99.90
2018-03-24T06:52:52.555Z,99.90
2018-03-24T06:55:21.574Z,99.90
2018-03-24T06:57:48.964Z,99.90
2018-03-24T07:00:16.423Z,99.90
2018-03-24T07:02:45.022Z,99.90
2018-03-24T07:05:12.464Z,99.90
2018-03-24T07:07:39.964Z,99.90
2018-03-24T07:10:07.358Z,99.90
2018-03-24T07:12:34.978Z,99.90
2018-03-24T07:15:02.429Z,99.90
2018-03-24T07:17:29.881Z,99.90
2018-03-24T07:19:57.360Z,99.90
2018-03-24T07:22:24.799Z,99.90
2018-03-24T07:24:52.256Z,99.90
2018-03-24T07:27:19.875Z,99.90
2018-03-24T07:29:47.319Z,99.90
2018-03-24T07:32:14.774Z,99.90
2018-03-24T07:34:42.221Z,99.90
2018-03-24T07:37:09.657Z,99.90
2018-03-24T07:39:37.119Z,99.90
2018-03-24T07:42:04.567Z,99.90
2018-03-24T07:44:32.030Z,99.90
2018-03-24T07:46:59.474Z,99.90
2018-03-24T07:49:26.911Z,99.90
2018-03-24T07:51:54.382Z,98.00
2018-03-24T07:54:21.813Z,96.50
2018-03-24T07:56:49.261Z,93.40
2018-03-24T07:59:16.697Z,91.90
2018-03-24T08:01:44.174Z,90.30
2018-03-24T08:04:11.680Z,89.30
2018-03-24T08:06:39.098Z,85.40
2018-03-24T08:09:06.566Z,83.80
2018-03-24T08:11:34.027Z,82.80
2018-03-24T08:14:01.466Z,80.90
2018-03-24T08:16:28.916Z,79.60
2018-03-24T08:18:56.369Z,78.10
2018-03-24T08:21:23.832Z,77.20
2018-03-24T08:23:51.278Z,75.80
2018-03-24T08:26:18.721Z,71.00
2018-03-24T08:28:46.184Z,70.40
2018-03-24T08:31:13.661Z,69.60
2018-03-24T08:33:41.113Z,68.60
2018-03-24T08:36:08.558Z,69.50
2018-03-24T08:38:36.001Z,68.90
2018-03-24T08:41:03.664Z,68.60
2018-03-24T08:43:31.117Z,66.60
2018-03-24T08:45:58.573Z,62.70
2018-03-24T08:48:26.014Z,61.00
2018-03-24T08:50:53.468Z,59.20
2018-03-24T08:53:20.922Z,60.40
2018-03-24T08:55:49.122Z,61.40
2018-03-24T08:58:16.584Z,61.20
2018-03-24T09:00:44.025Z,59.10
2018-03-24T09:03:11.469Z,58.00
2018-03-24T09:05:38.989Z,57.20
2018-03-24T09:08:06.432Z,57.40
2018-03-24T09:10:33.893Z,55.40
2018-03-24T09:13:01.342Z,55.40
2018-03-24T09:15:28.781Z,54.00
2018-03-24T09:17:56.463Z,52.70
2018-03-24T09:20:23.903Z,53.00
2018-03-24T09:22:51.354Z,52.70
2018-03-24T09:25:18.885Z,53.00
2018-03-24T09:27:46.318Z,52.60
2018-03-24T09:30:13.760Z,50.90
2018-03-24T09:32:41.225Z,49.80
2018-03-24T09:35:08.680Z,50.20
2018-03-24T09:37:36.122Z,48.30
2018-03-24T09:40:03.569Z,46.90
2018-03-24T09:42:31.038Z,45.60
2018-03-24T09:44:58.483Z,44.60
2018-03-24T09:47:25.991Z,44.50
2018-03-24T09:49:53.385Z,44.20
2018-03-24T09:52:20.823Z,42.90
2018-03-24T09:54:48.273Z,41.00
2018-03-24T09:57:15.714Z,41.80
2018-03-24T09:59:43.186Z,40.00
2018-03-24T10:02:10.622Z,40.10
2018-03-24T10:04:38.282Z,40.00
2018-03-24T10:07:06.050Z,38.10
2018-03-24T10:09:33.482Z,37.90
2018-03-24T10:12:00.926Z,37.70
2018-03-24T10:14:28.369Z,38.40
2018-03-24T10:16:56.580Z,36.50
2018-03-24T10:19:24.036Z,36.30
2018-03-24T10:25:08.293Z,36.90
2018-03-24T10:27:35.874Z,37.10
2018-03-24T10:30:03.330Z,34.80
2018-03-24T10:32:34.599Z,36.20
2018-03-24T10:35:05.864Z,35.70
2018-03-24T10:37:38.992Z,34.60
2018-03-24T10:40:06.449Z,34.00
2018-03-24T10:42:34.021Z,33.80
2018-03-24T10:45:01.453Z,33.70
2018-03-24T10:47:28.911Z,33.70
2018-03-24T10:49:56.359Z,34.50
2018-03-24T10:52:24.013Z,35.60
2018-03-24T10:54:51.442Z,35.70
2018-03-24T10:57:19.260Z,36.00
2018-03-24T10:59:46.713Z,37.10
2018-03-24T11:02:14.153Z,35.00
2018-03-24T11:04:41.893Z,32.20
2018-03-24T11:07:09.337Z,32.90
2018-03-24T11:09:36.770Z,33.80
2018-03-24T11:12:04.222Z,30.80
2018-03-24T11:14:31.761Z,32.80
2018-03-24T11:16:59.217Z,31.70
2018-03-24T11:19:26.730Z,31.40
2018-03-24T11:21:54.188Z,30.50
2018-03-24T11:24:21.649Z,29.90
2018-03-24T11:26:49.093Z,30.60
2018-03-24T11:29:16.545Z,30.00
2018-03-24T11:31:44.007Z,29.10
2018-03-24T11:34:11.442Z,30.40
2018-03-24T11:36:40.386Z,31.50
2018-03-24T11:39:07.813Z,32.10
2018-03-24T11:41:35.288Z,31.30
2018-03-24T11:44:02.751Z,30.50
2018-03-24T11:46:30.192Z,31.20
2018-03-24T11:48:58.914Z,32.30
2018-03-24T11:51:26.368Z,33.20
2018-03-24T11:53:53.939Z,33.90
2018-03-24T11:56:21.418Z,31.50
2018-03-24T11:58:48.852Z,31.20
2018-03-24T12:01:16.320Z,31.40
2018-03-24T12:03:44.266Z,29.90
2018-03-24T12:06:11.779Z,28.40
2018-03-24T12:08:39.290Z,27.00
2018-03-24T12:11:06.742Z,28.10
2018-03-24T12:13:34.204Z,29.50
2018-03-24T12:16:01.646Z,29.00
2018-03-24T12:18:29.877Z,27.30
2018-03-24T12:20:57.312Z,27.10
2018-03-24T12:23:24.760Z,27.00
2018-03-24T12:25:52.266Z,27.60
2018-03-24T12:28:19.708Z,28.80
2018-03-24T12:30:47.290Z,29.80
2018-03-24T12:33:14.773Z,31.80
2018-03-24T12:35:42.214Z,30.60
2018-03-24T12:38:09.660Z,30.00
2018-03-24T12:40:37.101Z,31.60
2018-03-24T12:43:04.613Z,31.00
2018-03-24T12:45:32.053Z,30.60
2018-03-24T12:47:59.533Z,30.20
2018-03-24T12:50:27.017Z,32.20
2018-03-24T12:52:54.556Z,32.80
2018-03-24T12:55:21.994Z,33.70
2018-03-24T12:57:49.476Z,32.10
2018-03-24T13:00:16.922Z,33.50
2018-03-24T13:02:50.000Z,33.40
2018-03-24T13:05:17.438Z,33.30
2018-03-24T13:07:45.665Z,32.50
2018-03-24T13:10:13.406Z,32.40
2018-03-24T13:12:41.298Z,31.50
2018-03-24T13:15:09.141Z,31.50
2018-03-24T13:17:36.578Z,28.40
2018-03-24T13:20:04.206Z,29.70
2018-03-24T13:22:31.740Z,30.10
2018-03-24T13:24:59.179Z,31.10
2018-03-24T13:27:26.981Z,31.50
2018-03-24T13:29:54.475Z,32.60
2018-03-24T13:32:22.340Z,32.70
2018-03-24T13:34:49.790Z,34.90
2018-03-24T13:37:17.225Z,35.70
2018-03-24T13:39:45.112Z,36.40
2018-03-24T13:42:12.578Z,35.70
2018-03-24T13:44:40.333Z,31.60
2018-03-24T13:47:07.805Z,31.10
2018-03-24T13:49:35.245Z,30.70
2018-03-24T13:52:02.702Z,32.50
2018-03-24T13:54:30.598Z,33.70
2018-03-24T13:56:58.089Z,35.40
2018-03-24T13:59:25.552Z,36.70
2018-03-24T14:01:53.002Z,36.40
2018-03-24T14:04:20.458Z,35.40
2018-03-24T14:06:47.907Z,33.60
2018-03-24T14:09:15.773Z,32.50
2018-03-24T14:11:43.279Z,30.20
2018-03-24T14:14:10.713Z,29.10
2018-03-24T14:16:38.168Z,29.20
2018-03-24T14:19:05.823Z,29.20
2018-03-24T14:21:33.317Z,30.00
2018-03-24T14:24:00.828Z,29.90
2018-03-24T14:26:28.349Z,29.20
2018-03-24T14:28:56.900Z,27.80
2018-03-24T14:31:24.360Z,27.20
2018-03-24T14:33:51.821Z,28.60
2018-03-24T14:36:19.268Z,29.60
2018-03-24T14:38:46.732Z,27.90
2018-03-24T14:41:14.194Z,29.10
2018-03-24T14:43:41.652Z,28.70
2018-03-24T14:46:09.105Z,28.10
2018-03-24T14:48:36.548Z,29.00
2018-03-24T14:51:04.254Z,29.50
2018-03-24T14:53:31.901Z,30.00
2018-03-24T14:55:59.333Z,30.00
2018-03-24T14:58:26.788Z,31.50
2018-03-24T15:00:54.322Z,30.80
2018-03-24T15:03:21.796Z,31.30
2018-03-24T15:05:49.325Z,29.80
2018-03-24T15:08:16.773Z,30.30
2018-03-24T15:10:44.229Z,30.60
2018-03-24T15:13:11.656Z,31.30
2018-03-24T15:15:39.866Z,33.90
2018-03-24T15:18:07.315Z,33.80
2018-03-24T15:20:37.282Z,34.70
2018-03-24T15:23:04.760Z,35.50
2018-03-24T15:25:33.701Z,35.50
2018-03-24T15:28:01.423Z,35.40
2018-03-24T15:30:40.732Z,36.40
2018-03-24T15:33:20.073Z,36.70
2018-03-24T15:35:59.260Z,36.40
2018-03-24T15:38:26.705Z,36.80
2018-03-24T15:40:54.152Z,37.90
2018-03-24T15:43:21.806Z,38.80
2018-03-24T15:45:49.238Z,38.70
2018-03-24T15:48:16.698Z,39.10
2018-03-24T15:50:44.137Z,39.00
2018-03-24T15:53:11.785Z,38.20
2018-03-24T15:55:39.230Z,38.90
2018-03-24T15:58:06.663Z,39.70
2018-03-24T16:00:34.125Z,39.10
2018-03-24T16:03:01.588Z,38.80
2018-03-24T16:05:29.046Z,39.60
2018-03-24T16:07:56.487Z,39.90
2018-03-24T16:10:26.711Z,40.40
2018-03-24T16:12:54.439Z,41.50
2018-03-24T16:15:21.908Z,41.60
2018-03-24T16:17:49.834Z,42.60
2018-03-24T16:20:17.261Z,41.90
2018-03-24T16:22:44.782Z,42.00
2018-03-24T16:25:12.225Z,41.60
2018-03-24T16:27:39.721Z,42.00
2018-03-24T16:30:08.166Z,42.70
2018-03-24T16:32:35.645Z,42.60
2018-03-24T16:35:03.086Z,42.50
2018-03-24T16:37:30.531Z,42.70
2018-03-24T16:39:58.033Z,41.90
2018-03-24T16:42:25.500Z,41.80
2018-03-24T16:44:52.952Z,41.40
2018-03-24T16:47:20.399Z,42.60
2018-03-24T16:49:47.866Z,43.30
2018-03-24T16:52:15.305Z,43.90
2018-03-24T16:54:42.762Z,44.00
2018-03-24T16:57:10.220Z,44.50
2018-03-24T16:59:37.731Z,44.90
2018-03-24T17:02:05.177Z,45.10
2018-03-24T17:04:32.615Z,45.70
2018-03-24T17:07:00.065Z,46.10
2018-03-24T17:09:27.649Z,45.60
2018-03-24T17:11:55.079Z,45.50
2018-03-24T17:14:22.516Z,45.90
2018-03-24T17:16:50.718Z,46.00
2018-03-24T17:19:18.196Z,45.90
2018-03-24T17:21:45.975Z,46.00
2018-03-24T17:24:13.420Z,46.50
2018-03-24T17:26:41.005Z,46.80
2018-03-24T17:29:08.434Z,47.20
2018-03-24T17:31:35.980Z,47.70
2018-03-24T17:34:03.429Z,48.10
2018-03-24T17:36:31.653Z,48.60
2018-03-24T17:38:59.269Z,48.60
2018-03-24T17:41:26.720Z,49.00
2018-03-24T17:43:54.633Z,49.20
2018-03-24T17:46:22.087Z,49.80
2018-03-24T17:48:49.744Z,49.70
2018-03-24T17:51:17.162Z,49.90
2018-03-24T17:53:44.604Z,50.10
2018-03-24T17:56:12.193Z,50.30
2018-03-24T17:58:39.691Z,51.40
2018-03-24T18:01:07.289Z,51.60
2018-03-24T18:03:34.984Z,51.80
2018-03-24T18:06:02.426Z,51.90
2018-03-24T18:08:29.857Z,52.10
2018-03-24T18:10:57.379Z,52.30
2018-03-24T18:13:24.833Z,52.50
2018-03-24T18:15:52.284Z,52.80
2018-03-24T18:18:19.732Z,53.00
2018-03-24T18:20:47.167Z,53.00
2018-03-24T18:23:14.869Z,53.20
2018-03-24T18:25:42.318Z,53.40
2018-03-24T18:28:09.804Z,53.50
2018-03-24T18:30:37.259Z,53.50
2018-03-24T18:33:04.706Z,53.50
2018-03-24T18:35:32.160Z,53.60
2018-03-24T18:37:59.601Z,53.70
2018-03-24T18:40:28.741Z,53.90
2018-03-24T18:42:56.198Z,53.90
2018-03-24T18:45:23.642Z,54.00
2018-03-24T18:47:52.010Z,54.20
2018-03-24T18:50:19.509Z,54.30
2018-03-24T18:52:47.888Z,54.40
2018-03-24T18:55:15.331Z,54.50
2018-03-24T18:57:42.796Z,54.60
2018-03-24T19:00:10.286Z,54.80
2018-03-24T19:02:37.730Z,55.00
2018-03-24T19:05:05.358Z,55.00
2018-03-24T19:07:32.809Z,55.10
2018-03-24T19:10:00.261Z,55.10
2018-03-24T19:12:27.722Z,55.20
2018-03-24T19:14:55.153Z,55.40
2018-03-24T19:17:22.593Z,55.40
2018-03-24T19:19:50.049Z,55.60
2018-03-24T19:22:17.531Z,55.70
2018-03-24T19:24:44.986Z,55.70
2018-03-24T19:27:12.427Z,55.80
2018-03-24T19:29:39.860Z,56.00
2018-03-24T19:32:07.313Z,56.20
2018-03-24T19:34:34.904Z,56.40
2018-03-24T19:37:02.364Z,56.50
2018-03-24T19:39:29.806Z,56.40
2018-03-24T19:41:57.249Z,56.60
2018-03-24T19:44:25.464Z,56.90
2018-03-24T19:46:53.218Z,56.80
2018-03-24T19:49:20.661Z,56.90
2018-03-24T19:51:48.194Z,57.00
2018-03-24T19:54:15.625Z,56.90
2018-03-24T19:56:43.086Z,56.90
2018-03-24T19:59:10.525Z,56.90
2018-03-24T20:01:38.003Z,56.90
2018-03-24T20:04:05.445Z,56.90
2018-03-24T20:06:32.878Z,56.90
2018-03-24T20:09:00.334Z,56.90
2018-03-24T20:11:27.774Z,57.10
2018-03-24T20:13:55.458Z,56.90
2018-03-24T20:16:22.893Z,56.90
2018-03-24T20:18:50.325Z,57.10
2018-03-24T20:21:17.794Z,57.20
2018-03-24T20:23:45.234Z,57.30
2018-03-24T20:26:12.689Z,57.40
2018-03-24T20:28:40.142Z,57.40
2018-03-24T20:31:07.686Z,57.40
2018-03-24T20:33:35.422Z,57.40
2018-03-24T20:36:02.873Z,57.50
2018-03-24T20:38:30.321Z,57.70
2018-03-24T20:40:57.760Z,57.70
2018-03-24T20:43:25.276Z,57.60
2018-03-24T20:45:52.724Z,57.60
2018-03-24T20:48:20.158Z,57.70
2018-03-24T20:50:47.614Z,57.70
2018-03-24T20:53:15.058Z,57.60
2018-03-24T20:55:43.277Z,57.90
2018-03-24T20:58:10.733Z,57.70
2018-03-24T21:00:38.547Z,57.90
2018-03-24T21:03:06.100Z,58.00
2018-03-24T21:05:33.533Z,58.00
2018-03-24T21:08:00.984Z,58.00
2018-03-24T21:10:28.437Z,58.10
2018-03-24T21:12:55.897Z,58.30
2018-03-24T21:15:24.096Z,58.50
2018-03-24T21:17:52.238Z,58.40
2018-03-24T21:20:19.690Z,58.40
2018-03-24T21:22:47.141Z,58.60
2018-03-24T21:25:15.347Z,58.60
2018-03-24T21:27:42.801Z,58.60
2018-03-24T21:30:10.926Z,58.80
2018-03-24T21:32:38.362Z,59.00
2018-03-24T21:35:05.813Z,59.00
2018-03-24T21:37:33.258Z,59.10
2018-03-24T21:40:00.788Z,59.20
2018-03-24T21:42:28.225Z,59.40
2018-03-24T21:44:55.670Z,59.60
2018-03-24T21:47:23.113Z,60.20
2018-03-24T21:49:50.549Z,60.90
2018-03-24T21:52:18.781Z,62.20
2018-03-24T21:54:46.214Z,62.20
2018-03-24T21:57:13.654Z,63.00
2018-03-24T21:59:41.104Z,63.70
2018-03-24T22:02:08.566Z,63.90
2018-03-24T22:04:36.227Z,64.20
2018-03-24T22:07:03.658Z,64.40
2018-03-24T22:09:31.118Z,65.00
2018-03-24T22:12:06.125Z,66.20
2018-03-24T22:14:33.566Z,66.20
2018-03-24T22:17:01.025Z,66.80
2018-03-24T22:19:29.249Z,67.70
2018-03-24T22:21:56.700Z,67.70
2018-03-24T22:24:30.374Z,67.90
2018-03-24T22:26:57.873Z,68.20
2018-03-24T22:29:25.398Z,68.70
2018-03-24T22:31:52.856Z,68.60
2018-03-24T22:34:21.096Z,69.40
2018-03-24T22:36:48.536Z,69.30
2018-03-24T22:39:15.991Z,70.40
2018-03-24T22:41:43.453Z,70.50
2018-03-24T22:44:10.894Z,70.60
2018-03-24T22:46:38.705Z,71.40
2018-03-24T22:49:06.157Z,71.90
2018-03-24T22:51:33.615Z,71.90
2018-03-24T22:54:01.053Z,72.00
2018-03-24T22:56:28.761Z,72.90
2018-03-24T22:58:56.202Z,73.30
2018-03-24T23:01:23.682Z,73.50
2018-03-24T23:03:51.120Z,73.90
2018-03-24T23:06:18.972Z,74.20
2018-03-24T23:08:46.380Z,74.40
2018-03-24T23:11:13.834Z,74.50
2018-03-24T23:13:41.298Z,74.90
2018-03-24T23:16:08.784Z,75.40
2018-03-24T23:18:36.424Z,75.90
2018-03-24T23:21:03.884Z,76.30
2018-03-24T23:23:31.340Z,76.90
2018-03-24T23:25:58.793Z,76.90
2018-03-24T23:28:26.240Z,77.40
2018-03-24T23:30:53.700Z,78.10
2018-03-24T23:33:21.165Z,78.50
2018-03-24T23:35:48.622Z,79.10
2018-03-24T23:38:16.073Z,79.30
2018-03-24T23:40:43.508Z,79.40
2018-03-24T23:43:11.032Z,79.40
2018-03-24T23:45:38.484Z,79.90
2018-03-24T23:48:05.964Z,80.20
2018-03-24T23:50:33.412Z,80.80
2018-03-24T23:53:00.899Z,81.30
2018-03-24T23:55:28.312Z,81.50
2018-03-24T23:57:55.897Z,82.00
